Time;durP1;ratioP1;P1;durP2;ratioP2;P2;SDS_P1;SDS_P2;PMS_P1;PMS_P2;Temp;Humidity;BMP_temperature;BMP_pressure;BME280_temperature;BME280_humidity;BME280_pressure;Samples;Min_cycle;Max_cycle;Signal;HPM_P1;HPM_P2
2022/07/13 00:01:35;;;;;;;3.97;2.65;;;21.50;68.20;;;;;;5012523;28;20126;-74
2022/07/13 00:04:01;;;;;;;3.67;2.38;;;21.40;68.40;;;;;;5013671;28;20022;-74
2022/07/13 00:06:27;;;;;;;4.22;2.55;;;21.40;68.20;;;;;;5015775;28;20471;-74
2022/07/13 00:08:52;;;;;;;3.63;2.60;;;21.40;68.30;;;;;;5025744;28;20049;-75
2022/07/13 00:11:18;;;;;;;4.15;2.45;;;21.40;68.50;;;;;;5022173;28;20030;-74
2022/07/13 00:13:43;;;;;;;3.35;2.10;;;21.40;68.90;;;;;;5003354;28;20022;-75
2022/07/13 00:16:09;;;;;;;4.93;2.33;;;21.40;69.40;;;;;;5009911;28;20462;-73
2022/07/13 00:18:34;;;;;;;4.82;2.85;;;21.30;69.60;;;;;;5001135;28;20033;-73
2022/07/13 00:21:00;;;;;;;4.35;2.45;;;21.30;70.10;;;;;;5009523;28;20032;-73
2022/07/13 00:23:26;;;;;;;4.68;2.33;;;21.30;70.10;;;;;;4996389;28;20030;-73
2022/07/13 00:25:51;;;;;;;6.65;2.60;;;21.30;69.80;;;;;;5005472;28;20030;-73
2022/07/13 00:28:17;;;;;;;3.78;2.63;;;21.30;70.10;;;;;;5015118;28;20114;-74
2022/07/13 00:30:42;;;;;;;5.07;2.47;;;21.20;70.60;;;;;;5014151;28;20224;-73
2022/07/13 00:33:08;;;;;;;5.40;2.50;;;21.20;70.20;;;;;;5014886;28;20029;-72
2022/07/13 00:35:34;;;;;;;4.38;2.80;;;21.30;70.30;;;;;;5014414;28;20049;-73
2022/07/13 00:38:00;;;;;;;4.38;2.42;;;21.30;70.30;;;;;;5015363;28;20449;-73
2022/07/13 00:40:26;;;;;;;4.38;2.83;;;21.30;70.50;;;;;;5013049;28;20021;-73
2022/07/13 00:42:52;;;;;;;4.38;2.53;;;21.30;70.50;;;;;;4995737;28;20026;-72
2022/07/13 00:45:18;;;;;;;3.72;2.55;;;21.30;70.90;;;;;;5006993;28;20072;-73
2022/07/13 00:47:46;;;;;;;4.70;2.53;;;21.30;70.80;;;;;;5013597;28;20025;-73
2022/07/13 00:50:11;;;;;;;6.45;3.25;;;21.30;71.00;;;;;;5004163;28;20030;-73
2022/07/13 00:52:38;;;;;;;4.82;3.08;;;21.20;71.10;;;;;;5013527;28;20037;-72
2022/07/13 00:55:06;;;;;;;3.50;2.40;;;21.30;71.70;;;;;;5014088;28;20026;-72
2022/07/13 00:57:36;;;;;;;3.50;2.35;;;21.30;71.30;;;;;;5006119;28;20173;-73
2022/07/13 01:00:10;;;;;;;4.13;2.67;;;21.30;71.40;;;;;;4995670;28;20525;-73
2022/07/13 01:02:38;;;;;;;4.47;2.67;;;21.30;71.40;;;;;;4996764;28;20038;-73
2022/07/13 01:05:04;;;;;;;5.05;2.90;;;21.30;71.30;;;;;;4995387;28;20109;-73
2022/07/13 01:07:32;;;;;;;5.57;2.58;;;21.30;71.40;;;;;;5012071;28;20127;-73
2022/07/13 01:09:58;;;;;;;3.72;2.63;;;21.30;71.40;;;;;;4999390;28;20115;-73
2022/07/13 01:12:26;;;;;;;5.18;2.65;;;21.30;71.60;;;;;;4998025;28;20038;-73
2022/07/13 01:14:52;;;;;;;3.78;2.60;;;21.30;71.70;;;;;;5013793;28;20026;-73
2022/07/13 01:17:18;;;;;;;5.28;2.50;;;21.30;71.80;;;;;;5013468;28;20440;-73
2022/07/13 01:19:44;;;;;;;4.05;2.40;;;21.30;71.50;;;;;;5018186;28;20089;-73
2022/07/13 01:22:14;;;;;;;3.38;2.20;;;21.30;71.20;;;;;;5018552;28;20477;-73
2022/07/13 01:24:40;;;;;;;4.43;2.20;;;21.30;70.90;;;;;;5015479;28;20544;-73
2022/07/13 01:27:06;;;;;;;3.78;2.33;;;21.30;70.80;;;;;;5010134;28;20061;-73
2022/07/13 01:29:31;;;;;;;3.80;2.17;;;21.30;70.70;;;;;;5012740;28;20477;-74
2022/07/13 01:31:59;;;;;;;3.53;1.92;;;21.30;70.80;;;;;;5011346;28;20034;-74
2022/07/13 01:34:25;;;;;;;4.03;2.22;;;21.30;70.80;;;;;;5011095;28;20065;-73
2022/07/13 01:36:51;;;;;;;3.40;1.90;;;21.30;70.80;;;;;;5001371;28;20061;-74
2022/07/13 01:39:16;;;;;;;3.38;2.20;;;21.30;70.80;;;;;;5010526;28;20030;-73
2022/07/13 01:41:42;;;;;;;3.85;2.20;;;21.30;70.80;;;;;;5013188;28;20076;-73
2022/07/13 01:44:08;;;;;;;3.13;2.10;;;21.30;70.80;;;;;;5000198;28;20813;-73
2022/07/13 01:46:33;;;;;;;2.78;2.20;;;21.30;70.80;;;;;;5003897;28;20519;-73
2022/07/13 01:48:59;;;;;;;2.80;2.17;;;21.30;70.80;;;;;;5002917;28;20434;-74
2022/07/13 01:51:24;;;;;;;2.90;1.70;;;21.30;70.70;;;;;;4997066;28;20039;-74
2022/07/13 01:53:50;;;;;;;3.20;1.80;;;21.30;70.70;;;;;;5000568;28;20022;-74
2022/07/13 01:56:16;;;;;;;2.30;1.80;;;21.30;70.70;;;;;;5012527;28;20496;-74
2022/07/13 01:58:41;;;;;;;2.47;1.55;;;21.30;70.70;;;;;;5014025;28;20042;-74
2022/07/13 02:01:07;;;;;;;2.92;1.90;;;21.30;70.80;;;;;;5002884;28;20500;-74
2022/07/13 02:03:33;;;;;;;2.10;1.70;;;21.20;70.70;;;;;;5013563;28;20117;-73
2022/07/13 02:05:59;;;;;;;4.82;2.13;;;21.20;70.80;;;;;;5009572;28;20029;-74
2022/07/13 02:08:25;;;;;;;3.00;2.22;;;21.20;70.80;;;;;;5013729;28;20053;-74
2022/07/13 02:10:51;;;;;;;2.83;1.80;;;21.20;71.00;;;;;;4999011;28;20499;-74
2022/07/13 02:13:17;;;;;;;2.60;1.80;;;21.20;71.20;;;;;;5013369;28;20034;-75
2022/07/13 02:15:43;;;;;;;2.97;1.70;;;21.10;71.40;;;;;;5011758;28;20032;-74
2022/07/13 02:18:09;;;;;;;2.60;1.80;;;21.10;71.50;;;;;;4996138;28;20041;-74
2022/07/13 02:20:35;;;;;;;2.95;2.08;;;21.10;71.70;;;;;;5000598;28;20046;-74
2022/07/13 02:23:01;;;;;;;2.67;1.77;;;21.10;71.80;;;;;;5011644;28;20130;-74
2022/07/13 02:25:27;;;;;;;2.65;1.80;;;21.10;71.90;;;;;;5011638;28;20014;-74
2022/07/13 02:27:52;;;;;;;4.50;1.80;;;21.10;72.10;;;;;;4993399;28;20411;-74
2022/07/13 02:30:18;;;;;;;2.22;1.50;;;21.10;72.20;;;;;;4994080;28;20077;-68
2022/07/13 02:32:45;;;;;;;4.03;2.20;;;21.10;72.30;;;;;;5012927;28;20108;-68
2022/07/13 02:35:12;;;;;;;2.90;1.73;;;21.10;72.40;;;;;;5004113;28;20050;-68
2022/07/13 02:37:38;;;;;;;3.38;2.08;;;21.10;72.40;;;;;;5010365;28;20513;-68
2022/07/13 02:40:06;;;;;;;2.85;1.95;;;21.10;72.50;;;;;;4998269;28;20022;-69
2022/07/13 02:42:31;;;;;;;3.20;2.10;;;21.10;72.60;;;;;;5011870;28;20026;-68
2022/07/13 02:44:57;;;;;;;2.95;1.90;;;21.10;72.70;;;;;;5013018;28;20075;-68
2022/07/13 02:47:23;;;;;;;2.45;1.50;;;21.10;72.70;;;;;;5011766;28;20026;-68
2022/07/13 02:49:49;;;;;;;3.45;2.08;;;21.10;72.80;;;;;;5001004;28;20485;-67
2022/07/13 02:52:15;;;;;;;2.50;1.75;;;21.10;72.90;;;;;;4994683;28;20080;-67
2022/07/13 02:54:41;;;;;;;2.60;1.80;;;21.10;73.00;;;;;;4997271;28;20563;-67
2022/07/13 02:57:06;;;;;;;3.55;1.73;;;21.00;73.10;;;;;;5011718;28;20164;-68
2022/07/13 02:59:33;;;;;;;4.28;2.05;;;21.00;73.20;;;;;;5012074;28;20030;-68
2022/07/13 03:01:59;;;;;;;3.83;1.95;;;21.00;73.40;;;;;;5011649;28;20061;-68
2022/07/13 03:04:25;;;;;;;2.95;1.95;;;21.00;73.60;;;;;;5010935;28;20030;-68
2022/07/13 03:06:50;;;;;;;5.15;1.83;;;21.10;73.80;;;;;;5002026;28;20041;-68
2022/07/13 03:09:16;;;;;;;2.78;1.80;;;21.10;74.00;;;;;;5004682;28;20050;-69
2022/07/13 03:11:41;;;;;;;2.60;1.83;;;21.00;74.50;;;;;;5003235;28;20029;-68
2022/07/13 03:14:07;;;;;;;3.63;1.90;;;21.10;74.20;;;;;;5012667;28;20026;-69
2022/07/13 03:16:34;;;;;;;3.45;2.03;;;21.10;74.30;;;;;;5003321;28;20034;-69
2022/07/13 03:19:00;;;;;;;3.00;1.92;;;21.10;74.40;;;;;;5005569;28;20034;-69
2022/07/13 03:21:25;;;;;;;2.97;1.55;;;21.10;74.60;;;;;;5011151;28;20057;-69
2022/07/13 03:23:51;;;;;;;3.35;1.90;;;21.10;75.20;;;;;;5002013;28;20052;-69
2022/07/13 03:26:16;;;;;;;3.00;2.10;;;21.10;74.80;;;;;;5010657;28;20057;-69
2022/07/13 03:28:42;;;;;;;3.78;1.60;;;21.10;74.90;;;;;;5011908;28;20049;-69
2022/07/13 03:31:07;;;;;;;4.82;2.22;;;21.10;74.90;;;;;;5011115;28;20026;-69
2022/07/13 03:33:33;;;;;;;3.00;1.98;;;21.10;75.10;;;;;;5011680;28;20030;-69
2022/07/13 03:35:58;;;;;;;2.65;1.77;;;21.10;75.20;;;;;;5011102;28;20101;-69
2022/07/13 03:38:24;;;;;;;3.67;1.67;;;21.10;75.40;;;;;;5011225;28;20038;-68
2022/07/13 03:40:49;;;;;;;3.90;2.03;;;21.10;75.50;;;;;;5012387;28;20466;-67
2022/07/13 03:43:15;;;;;;;3.50;2.20;;;21.20;75.70;;;;;;5019903;28;20056;-69
2022/07/13 03:45:40;;;;;;;3.00;2.00;;;21.10;75.80;;;;;;5012038;28;20354;-69
2022/07/13 03:48:06;;;;;;;2.50;1.80;;;21.10;75.90;;;;;;5010496;28;20033;-68
2022/07/13 03:50:31;;;;;;;3.08;1.60;;;21.10;76.00;;;;;;5010885;28;20056;-68
2022/07/13 03:52:57;;;;;;;4.13;2.00;;;21.10;76.10;;;;;;4992872;28;20038;-69
2022/07/13 03:55:23;;;;;;;3.47;1.80;;;21.10;76.20;;;;;;4992367;28;20030;-68
2022/07/13 03:57:48;;;;;;;3.75;1.92;;;21.10;76.40;;;;;;4994476;28;20034;-68
2022/07/13 04:00:14;;;;;;;3.10;2.00;;;21.10;76.50;;;;;;5001140;28;20467;-68
2022/07/13 04:02:40;;;;;;;3.70;1.77;;;21.20;76.80;;;;;;5011220;28;20389;-68
2022/07/13 04:05:06;;;;;;;3.13;2.05;;;21.10;76.90;;;;;;5011432;28;20487;-68
2022/07/13 04:07:31;;;;;;;2.78;2.00;;;21.20;77.00;;;;;;5007952;28;20029;-68
2022/07/13 04:09:57;;;;;;;5.28;2.47;;;21.20;77.00;;;;;;5007728;28;20452;-68
2022/07/13 04:12:22;;;;;;;2.92;2.08;;;21.20;77.10;;;;;;5010245;28;20056;-68
2022/07/13 04:14:51;;;;;;;2.75;1.90;;;21.20;77.10;;;;;;5003320;28;20027;-67
2022/07/13 04:17:16;;;;;;;4.95;2.10;;;21.20;77.30;;;;;;4998943;28;20125;-69
2022/07/13 04:19:42;;;;;;;2.63;1.80;;;21.20;77.30;;;;;;5005636;28;20114;-75
2022/07/13 04:22:07;;;;;;;2.53;1.80;;;21.20;77.50;;;;;;5003681;28;20030;-76
2022/07/13 04:24:33;;;;;;;3.33;1.83;;;21.30;77.60;;;;;;4990809;28;20034;-72
2022/07/13 04:26:59;;;;;;;2.90;1.67;;;21.30;77.70;;;;;;5000318;28;20018;-73
2022/07/13 04:29:24;;;;;;;3.53;2.00;;;21.30;77.90;;;;;;4991896;28;20038;-72
2022/07/13 04:31:50;;;;;;;2.55;1.80;;;21.30;78.10;;;;;;5003634;28;20038;-69
2022/07/13 04:34:16;;;;;;;3.42;2.00;;;21.30;78.10;;;;;;5009560;28;20485;-68
2022/07/13 04:36:42;;;;;;;3.30;2.30;;;21.30;78.30;;;;;;5000287;28;20097;-68
2022/07/13 04:39:08;;;;;;;3.05;1.80;;;21.40;78.40;;;;;;5004058;28;20049;-69
2022/07/13 04:41:33;;;;;;;3.40;1.85;;;21.40;78.40;;;;;;5009955;28;20022;-69
2022/07/13 04:43:59;;;;;;;4.20;2.15;;;21.40;78.30;;;;;;5010506;28;20452;-69
2022/07/13 04:46:25;;;;;;;3.97;1.88;;;21.50;78.40;;;;;;5010287;28;20037;-68
2022/07/13 04:48:51;;;;;;;3.20;2.08;;;21.50;78.50;;;;;;5011592;28;20037;-67
2022/07/13 04:51:16;;;;;;;5.50;2.47;;;21.50;78.70;;;;;;5003952;28;20056;-68
2022/07/13 04:53:42;;;;;;;3.88;2.03;;;21.60;78.80;;;;;;5013823;28;20026;-68
2022/07/13 04:56:07;;;;;;;3.22;2.25;;;21.60;78.80;;;;;;5012109;28;20034;-68
2022/07/13 04:58:33;;;;;;;2.78;1.80;;;21.60;78.90;;;;;;5014974;28;20552;-68
2022/07/13 05:01:00;;;;;;;3.50;1.90;;;21.60;79.00;;;;;;5006147;28;20546;-69
2022/07/13 05:03:26;;;;;;;3.08;2.08;;;21.70;79.30;;;;;;5014867;28;20113;-68
2022/07/13 05:05:52;;;;;;;3.47;2.03;;;21.70;79.40;;;;;;5011680;28;20022;-68
2022/07/13 05:08:17;;;;;;;3.65;2.03;;;21.70;79.70;;;;;;5014683;28;20041;-69
2022/07/13 05:10:43;;;;;;;3.75;2.10;;;21.80;80.00;;;;;;5011359;28;20030;-69
2022/07/13 05:13:08;;;;;;;3.22;1.80;;;21.80;79.80;;;;;;5014503;28;20105;-68
2022/07/13 05:15:34;;;;;;;3.05;1.77;;;21.80;80.10;;;;;;5007283;28;20030;-68
2022/07/13 05:17:59;;;;;;;6.95;2.50;;;21.90;79.90;;;;;;5014519;28;20540;-68
2022/07/13 05:20:25;;;;;;;2.92;2.17;;;22.00;80.10;;;;;;5006979;28;20029;-69
2022/07/13 05:22:51;;;;;;;4.18;1.90;;;22.00;79.90;;;;;;5014237;28;20034;-69
2022/07/13 05:25:16;;;;;;;3.58;2.30;;;22.00;80.10;;;;;;5013342;28;20018;-68
2022/07/13 05:27:42;;;;;;;3.53;2.13;;;22.10;79.90;;;;;;5014157;28;20033;-68
2022/07/13 05:30:08;;;;;;;2.50;1.80;;;22.10;80.00;;;;;;5013618;28;20030;-69
2022/07/13 05:32:33;;;;;;;7.00;2.63;;;22.20;80.20;;;;;;5013311;28;20053;-72
2022/07/13 05:34:59;;;;;;;4.82;2.00;;;22.20;80.30;;;;;;5013559;28;20470;-69
2022/07/13 05:37:24;;;;;;;3.53;2.15;;;22.20;80.20;;;;;;5012400;28;20548;-72
2022/07/13 05:39:50;;;;;;;2.33;1.73;;;22.30;80.50;;;;;;5013072;28;20096;-70
2022/07/13 05:42:16;;;;;;;4.53;2.03;;;22.40;80.60;;;;;;5008676;28;20026;-71
2022/07/13 05:44:41;;;;;;;3.05;2.00;;;22.40;80.70;;;;;;5014080;28;20121;-71
2022/07/13 05:47:07;;;;;;;7.43;2.30;;;22.40;80.90;;;;;;5009778;28;20030;-69
2022/07/13 05:49:32;;;;;;;3.80;2.50;;;22.50;81.00;;;;;;5013235;28;20113;-69
2022/07/13 05:51:59;;;;;;;76.93;70.78;;;22.50;80.70;;;;;;5011646;28;20030;-68
2022/07/13 05:54:25;;;;;;;19.98;18.25;;;22.50;81.00;;;;;;5012383;28;20037;-68
2022/07/13 05:56:50;;;;;;;6.38;4.68;;;22.60;81.10;;;;;;5012365;28;20030;-68
2022/07/13 05:59:16;;;;;;;4.50;3.67;;;22.70;80.50;;;;;;5002718;28;20410;-68
2022/07/13 06:01:41;;;;;;;4.55;2.70;;;22.70;80.20;;;;;;5010309;28;20017;-68
2022/07/13 06:04:07;;;;;;;3.42;2.40;;;22.70;79.80;;;;;;5007245;28;20030;-68
2022/07/13 06:06:33;;;;;;;3.55;2.13;;;22.80;80.10;;;;;;5005997;28;20025;-67
2022/07/13 06:08:58;;;;;;;4.07;2.33;;;22.80;80.30;;;;;;5002493;28;20038;-69
2022/07/13 06:11:24;;;;;;;8.57;2.55;;;22.80;80.00;;;;;;5002283;28;20036;-66
2022/07/13 06:13:49;;;;;;;8.82;2.40;;;22.90;80.40;;;;;;5001066;28;20389;-70
2022/07/13 06:16:15;;;;;;;4.60;1.90;;;22.90;80.50;;;;;;5006877;28;20554;-70
2022/07/13 06:18:40;;;;;;;6.95;2.75;;;23.00;80.40;;;;;;5010160;28;20033;-70
2022/07/13 06:21:06;;;;;;;5.57;2.10;;;23.10;80.20;;;;;;5010733;28;20493;-70
2022/07/13 06:23:31;;;;;;;4.95;2.08;;;23.10;80.50;;;;;;5004829;28;20044;-70
2022/07/13 06:25:58;;;;;;;7.22;2.85;;;23.20;80.30;;;;;;5000992;28;20033;-70
2022/07/13 06:28:24;;;;;;;4.15;2.30;;;23.30;80.10;;;;;;5007427;28;20049;-70
2022/07/13 06:30:49;;;;;;;3.83;1.90;;;23.40;80.10;;;;;;4996254;28;20022;-70
2022/07/13 06:33:15;;;;;;;3.03;2.00;;;23.50;79.70;;;;;;4999089;28;20088;-70
2022/07/13 06:35:40;;;;;;;2.85;1.90;;;23.60;79.70;;;;;;5002890;28;20083;-70
2022/07/13 06:38:06;;;;;;;2.33;1.80;;;23.60;79.30;;;;;;4999200;28;20034;-71
2022/07/13 06:40:31;;;;;;;2.63;1.75;;;23.70;79.10;;;;;;5001941;28;20026;-71
2022/07/13 06:42:57;;;;;;;3.22;2.00;;;23.80;78.80;;;;;;4999699;28;20057;-71
2022/07/13 06:45:23;;;;;;;4.22;2.03;;;23.90;78.60;;;;;;4993302;28;20041;-71
2022/07/13 06:47:51;;;;;;;4.40;2.25;;;24.00;78.90;;;;;;5002271;28;20027;-74
2022/07/13 06:50:18;;;;;;;4.32;2.13;;;24.10;78.50;;;;;;4991127;28;20381;-70
2022/07/13 06:52:44;;;;;;;3.42;2.05;;;24.20;78.40;;;;;;5003037;28;20022;-72
2022/07/13 06:55:10;;;;;;;4.78;1.73;;;24.30;77.30;;;;;;4992950;28;20506;-72
2022/07/13 06:57:36;;;;;;;2.80;1.90;;;24.40;77.20;;;;;;5007026;28;20042;-67
2022/07/13 07:00:06;;;;;;;3.00;1.67;;;24.50;76.60;;;;;;4992251;28;20446;-67
2022/07/13 07:02:32;;;;;;;4.03;1.90;;;24.70;76.40;;;;;;5007477;28;20037;-66
2022/07/13 07:04:57;;;;;;;2.90;1.90;;;24.70;76.20;;;;;;4997815;28;20026;-68
2022/07/13 07:07:23;;;;;;;2.67;1.63;;;24.80;76.30;;;;;;5010160;28;20029;-67
2022/07/13 07:09:49;;;;;;;3.17;2.38;;;24.90;75.80;;;;;;5010914;28;20057;-67
2022/07/13 07:12:14;;;;;;;2.40;1.75;;;25.00;75.60;;;;;;5006438;28;20023;-67
2022/07/13 07:14:40;;;;;;;3.15;1.90;;;25.10;75.50;;;;;;4992545;28;20101;-67
2022/07/13 07:17:05;;;;;;;5.43;2.10;;;25.10;75.20;;;;;;5003014;28;20511;-68
2022/07/13 07:19:34;;;;;;;3.38;2.20;;;25.20;74.70;;;;;;5015479;28;20135;-68
2022/07/13 07:21:59;;;;;;;2.28;1.65;;;25.30;74.90;;;;;;5002905;28;20490;-67
2022/07/13 07:24:25;;;;;;;5.30;1.40;;;25.40;74.60;;;;;;4992295;28;20085;-69
2022/07/13 07:26:51;;;;;;;2.47;1.75;;;25.50;74.10;;;;;;4997667;28;20477;-70
2022/07/13 07:29:17;;;;;;;2.90;1.80;;;25.50;74.40;;;;;;5002336;28;20049;-70
2022/07/13 07:31:42;;;;;;;3.78;2.20;;;25.60;73.50;;;;;;5009822;28;20500;-67
2022/07/13 07:34:08;;;;;;;3.42;2.00;;;25.60;73.30;;;;;;5003608;28;20019;-66
2022/07/13 07:36:34;;;;;;;3.80;1.98;;;25.80;73.20;;;;;;5008210;28;20044;-65
2022/07/13 07:38:59;;;;;;;5.20;2.10;;;25.90;73.70;;;;;;5000696;28;20076;-66
2022/07/13 07:41:25;;;;;;;2.53;1.83;;;26.00;73.80;;;;;;5005733;28;20026;-65
2022/07/13 07:43:51;;;;;;;4.85;2.10;;;26.10;73.00;;;;;;5008459;28;20044;-67
2022/07/13 07:46:16;;;;;;;5.13;1.85;;;26.20;72.60;;;;;;4995593;28;20022;-67
2022/07/13 07:48:42;;;;;;;2.08;1.60;;;26.30;72.20;;;;;;4998485;28;20054;-67
2022/07/13 07:51:08;;;;;;;3.05;1.90;;;26.40;71.90;;;;;;4998184;28;20030;-66
2022/07/13 07:53:33;;;;;;;3.50;1.83;;;26.40;71.00;;;;;;5002153;28;20034;-66
2022/07/13 07:55:59;;;;;;;4.60;2.15;;;26.50;70.40;;;;;;4998276;28;20037;-66
2022/07/13 07:58:24;;;;;;;3.10;1.65;;;26.60;70.50;;;;;;5009939;28;20519;-67
2022/07/13 08:00:50;;;;;;;3.35;2.15;;;26.70;70.40;;;;;;5008352;28;20030;-66
2022/07/13 08:03:16;;;;;;;3.72;2.00;;;26.80;70.00;;;;;;4996294;28;20498;-66
2022/07/13 08:05:45;;;;;;;3.28;2.00;;;26.80;69.90;;;;;;5002697;28;20022;-66
2022/07/13 08:08:10;;;;;;;3.08;2.10;;;26.90;69.40;;;;;;5005049;28;20116;-66
2022/07/13 08:10:36;;;;;;;4.00;2.03;;;27.00;69.30;;;;;;5002507;28;20064;-65
2022/07/13 08:13:03;;;;;;;2.22;1.63;;;27.10;67.90;;;;;;4999457;28;20469;-65
2022/07/13 08:15:29;;;;;;;3.00;1.60;;;27.10;68.00;;;;;;5007803;28;20030;-65
2022/07/13 08:17:56;;;;;;;2.28;1.60;;;27.20;67.80;;;;;;5007826;28;20416;-66
2022/07/13 08:20:22;;;;;;;2.42;1.42;;;27.30;66.90;;;;;;5015109;28;20026;-65
2022/07/13 08:22:48;;;;;;;2.33;1.40;;;27.30;66.50;;;;;;5005811;28;20037;-64
2022/07/13 08:25:14;;;;;;;4.32;2.22;;;27.30;66.70;;;;;;5003382;28;20203;-65
2022/07/13 08:27:39;;;;;;;3.15;1.95;;;27.30;66.80;;;;;;5008184;28;20134;-65
2022/07/13 08:30:05;;;;;;;3.47;1.60;;;27.30;66.80;;;;;;5003665;28;20493;-65
2022/07/13 08:32:31;;;;;;;3.13;2.00;;;27.40;66.50;;;;;;5008603;28;20031;-65
2022/07/13 08:40:25;;;;;;;2.42;1.67;;;27.50;66.30;;;;;;5005550;28;20037;-65
2022/07/13 08:42:51;;;;;;;3.58;1.90;;;27.50;66.00;;;;;;5007028;28;20038;-65
2022/07/13 08:45:16;;;;;;;2.95;1.70;;;27.60;65.90;;;;;;5004372;28;20026;-65
2022/07/13 08:47:42;;;;;;;2.95;1.55;;;27.70;65.50;;;;;;5009334;28;20030;-65
2022/07/13 08:50:09;;;;;;;2.45;1.42;;;27.80;64.80;;;;;;5007924;28;20025;-66
2022/07/13 08:52:42;;;;;;;2.72;1.30;;;27.90;64.50;;;;;;5012306;28;20112;-65
2022/07/13 08:55:08;;;;;;;4.97;1.40;;;28.00;64.10;;;;;;5008135;28;20452;-65
2022/07/13 08:57:36;;;;;;;3.92;2.00;;;28.00;63.50;;;;;;5004566;28;20417;-65
2022/07/13 09:00:08;;;;;;;2.00;1.60;;;28.10;63.30;;;;;;5009500;28;20132;-65
2022/07/13 09:02:34;;;;;;;7.68;1.75;;;28.20;63.30;;;;;;4999933;28;20038;-66
2022/07/13 09:05:06;;;;;;;4.65;1.77;;;28.30;63.00;;;;;;5007023;28;20026;-66
2022/07/13 09:07:33;;;;;;;2.83;1.45;;;28.40;62.90;;;;;;5006327;28;20025;-66
2022/07/13 09:10:02;;;;;;;2.88;1.60;;;28.50;62.70;;;;;;5006520;28;20074;-66
2022/07/13 09:12:28;;;;;;;4.32;1.63;;;28.60;62.90;;;;;;5010126;28;20092;-66
2022/07/13 09:15:04;;;;;;;3.55;1.70;;;28.70;62.60;;;;;;5004097;28;20034;-66
2022/07/13 09:17:42;;;;;;;1.98;1.40;;;28.80;62.70;;;;;;4996666;28;20053;-66
2022/07/13 09:20:14;;;;;;;2.03;1.40;;;28.90;61.50;;;;;;5028743;28;20488;-65
2022/07/13 09:22:57;;;;;;;2.50;1.60;;;29.00;60.70;;;;;;5012377;28;20026;-66
2022/07/13 09:25:37;;;;;;;2.78;1.80;;;29.10;60.90;;;;;;5013805;28;20515;-66
2022/07/13 09:28:05;;;;;;;3.83;1.70;;;29.10;60.40;;;;;;5014098;28;20034;-65
2022/07/13 09:30:31;;;;;;;2.75;1.75;;;29.20;60.00;;;;;;5011929;28;20579;-65
2022/07/13 09:32:58;;;;;;;2.63;1.50;;;29.20;60.70;;;;;;4993362;28;20065;-65
2022/07/13 09:35:46;;;;;;;1.85;1.50;;;29.20;60.00;;;;;;4994283;28;20031;-66
2022/07/13 09:38:36;;;;;;;3.15;1.50;;;29.30;60.60;;;;;;4994716;28;20042;-66
2022/07/13 09:41:14;;;;;;;3.20;2.17;;;29.40;60.60;;;;;;4999522;28;20547;-65
2022/07/13 09:46:51;;;;;;;1.58;1.35;;;29.50;60.10;;;;;;5012495;28;20025;-66
2022/07/13 09:49:18;;;;;;;3.83;2.17;;;29.50;60.20;;;;;;5000023;28;20036;-66
2022/07/13 09:51:45;;;;;;;3.47;1.60;;;29.50;60.00;;;;;;5006528;28;20488;-66
2022/07/13 09:54:12;;;;;;;3.20;1.70;;;29.60;60.00;;;;;;5013738;28;20045;-66
2022/07/13 09:56:43;;;;;;;2.70;1.52;;;29.60;59.90;;;;;;5013014;28;20108;-66
2022/07/13 09:59:10;;;;;;;3.17;1.95;;;29.80;59.70;;;;;;5001580;28;20105;-65
2022/07/13 10:01:35;;;;;;;2.10;1.45;;;29.80;59.60;;;;;;5003653;28;20026;-66
2022/07/13 10:04:02;;;;;;;2.20;1.65;;;29.70;59.30;;;;;;5012360;28;20065;-66
2022/07/13 10:06:28;;;;;;;3.17;1.75;;;29.80;59.60;;;;;;5012355;28;20030;-66
2022/07/13 10:08:54;;;;;;;2.85;1.80;;;29.80;59.50;;;;;;5013384;28;20057;-66
2022/07/13 10:11:20;;;;;;;2.67;1.67;;;29.80;59.80;;;;;;5026487;28;20069;-66
2022/07/13 10:13:46;;;;;;;2.92;1.45;;;29.90;59.40;;;;;;5013321;28;20022;-66
2022/07/13 10:16:12;;;;;;;3.97;1.80;;;30.00;59.00;;;;;;5011685;28;20038;-66
2022/07/13 10:18:41;;;;;;;2.78;1.80;;;30.00;58.50;;;;;;5012430;28;20038;-66
2022/07/13 10:21:26;;;;;;;2.92;1.55;;;30.00;58.70;;;;;;5011332;28;20056;-66
2022/07/13 10:23:51;;;;;;;4.55;1.88;;;30.00;58.60;;;;;;5013424;28;20156;-66
2022/07/13 10:26:31;;;;;;;1.95;1.50;;;30.10;58.50;;;;;;5005129;28;20118;-66
2022/07/13 10:29:09;;;;;;;2.25;1.50;;;30.10;58.50;;;;;;4993497;28;20054;-66
2022/07/13 10:31:38;;;;;;;2.88;1.80;;;30.20;58.20;;;;;;5002913;28;20030;-66
2022/07/13 10:34:05;;;;;;;2.50;1.67;;;30.20;57.90;;;;;;4996048;28;20393;-66
2022/07/13 10:36:50;;;;;;;3.22;1.77;;;30.30;57.50;;;;;;5012307;28;20033;-66
2022/07/13 10:39:16;;;;;;;2.95;1.77;;;30.40;57.40;;;;;;5013269;28;20389;-66
2022/07/13 10:41:57;;;;;;;3.25;1.63;;;30.40;57.30;;;;;;5011593;28;20661;-66
2022/07/13 10:44:37;;;;;;;2.42;1.35;;;30.40;57.10;;;;;;5013094;28;20449;-65
2022/07/13 10:47:08;;;;;;;2.10;1.33;;;30.40;56.80;;;;;;5008728;28;20030;-65
2022/07/13 10:49:46;;;;;;;2.97;1.75;;;30.40;56.70;;;;;;5011496;28;20393;-66
2022/07/13 10:55:15;;;;;;;2.80;1.50;;;30.60;58.00;;;;;;5012823;28;20037;-66
2022/07/13 10:57:44;;;;;;;1.92;1.35;;;30.60;56.80;;;;;;4973792;28;20046;-66
2022/07/13 11:00:19;;;;;;;1.77;1.60;;;30.70;56.30;;;;;;4991638;28;20482;-66
2022/07/13 11:02:50;;;;;;;2.33;1.70;;;30.80;55.60;;;;;;5012391;28;20084;-66
2022/07/13 11:05:19;;;;;;;2.42;1.80;;;30.80;55.90;;;;;;5010995;28;20469;-67
2022/07/13 11:07:49;;;;;;;2.97;1.30;;;30.80;56.00;;;;;;5008121;28;20034;-66
2022/07/13 11:10:22;;;;;;;5.18;1.88;;;30.80;55.80;;;;;;4992336;28;20066;-65
2022/07/13 11:12:58;;;;;;;3.22;1.70;;;30.80;55.60;;;;;;5010639;28;20052;-65
2022/07/13 11:15:40;;;;;;;3.70;1.65;;;30.70;55.60;;;;;;5011496;28;20524;-65
2022/07/13 11:18:21;;;;;;;1.95;1.40;;;30.60;55.60;;;;;;5011933;28;20056;-65
2022/07/13 11:21:09;;;;;;;2.50;1.60;;;30.60;55.50;;;;;;5010603;28;20496;-65
2022/07/13 11:26:51;;;;;;;3.83;1.42;;;30.50;55.10;;;;;;5001995;28;20041;-65
2022/07/13 11:30:11;;;;;;;4.82;1.80;;;30.50;55.40;;;;;;5011698;28;20022;-65
2022/07/13 11:32:38;;;;;;;2.45;1.50;;;30.50;54.50;;;;;;4989090;28;20512;-65
2022/07/13 11:35:04;;;;;;;2.97;1.70;;;30.50;54.00;;;;;;5007408;28;20042;-65
2022/07/13 11:37:30;;;;;;;3.45;1.83;;;30.50;53.30;;;;;;5010282;28;20038;-66
2022/07/13 11:39:55;;;;;;;2.95;1.50;;;30.50;52.50;;;;;;4993621;28;20489;-66
2022/07/13 11:42:24;;;;;;;3.45;1.63;;;30.50;51.10;;;;;;5009264;28;20061;-65
2022/07/13 11:44:51;;;;;;;2.03;1.50;;;30.50;50.40;;;;;;5001720;28;20038;-65
2022/07/13 11:47:16;;;;;;;2.80;1.60;;;30.40;50.70;;;;;;5004487;28;20044;-65
2022/07/13 11:49:47;;;;;;;3.05;1.50;;;30.40;51.60;;;;;;5010572;28;20029;-66
2022/07/13 11:52:19;;;;;;;3.22;1.42;;;30.30;51.70;;;;;;4998151;28;20022;-66
2022/07/13 11:54:55;;;;;;;2.33;1.63;;;30.30;52.10;;;;;;5006861;28;20033;-67
2022/07/13 11:57:20;;;;;;;5.53;1.60;;;30.30;52.30;;;;;;5008288;28;20072;-67
2022/07/13 11:59:46;;;;;;;2.70;1.60;;;30.40;52.70;;;;;;5007707;28;20034;-67
2022/07/13 12:02:14;;;;;;;3.88;1.60;;;30.40;52.50;;;;;;5003054;28;20029;-66
2022/07/13 12:04:41;;;;;;;3.38;1.73;;;30.40;53.00;;;;;;5005817;28;20045;-66
2022/07/13 12:07:18;;;;;;;2.40;1.98;;;30.40;52.90;;;;;;5010287;28;20037;-66
2022/07/13 12:09:48;;;;;;;4.00;1.80;;;30.40;52.80;;;;;;5010238;28;20481;-66
2022/07/13 12:12:15;;;;;;;3.25;2.03;;;30.50;52.90;;;;;;5013424;28;20141;-66
2022/07/13 12:14:41;;;;;;;4.28;2.08;;;30.60;53.30;;;;;;5009921;28;20072;-66
2022/07/13 12:17:07;;;;;;;4.03;2.00;;;30.60;53.00;;;;;;5009067;28;20084;-66
2022/07/13 12:19:33;;;;;;;3.20;1.98;;;30.50;52.70;;;;;;5013465;28;20038;-66
2022/07/13 12:21:59;;;;;;;2.75;1.63;;;30.50;52.50;;;;;;5008156;28;20095;-66
2022/07/13 12:24:25;;;;;;;3.47;2.00;;;30.50;51.90;;;;;;4995834;28;20065;-67
2022/07/13 12:26:52;;;;;;;4.03;1.83;;;30.50;52.30;;;;;;5011128;28;20026;-66
2022/07/13 12:29:33;;;;;;;2.08;1.65;;;30.50;52.20;;;;;;5010023;28;20077;-67
2022/07/13 12:32:02;;;;;;;2.90;1.80;;;30.50;52.50;;;;;;4996222;28;20034;-66
2022/07/13 12:34:28;;;;;;;3.58;2.47;;;30.50;52.40;;;;;;4999147;28;20493;-66
2022/07/13 12:36:54;;;;;;;3.88;1.80;;;30.50;52.50;;;;;;5012230;28;20065;-67
2022/07/13 12:39:35;;;;;;;5.60;1.65;;;30.50;52.40;;;;;;5014837;28;20033;-66
2022/07/13 12:42:02;;;;;;;2.95;1.73;;;30.60;51.60;;;;;;5010658;28;20028;-67
2022/07/13 12:44:29;;;;;;;4.35;1.80;;;30.60;51.50;;;;;;5012731;28;20489;-65
2022/07/13 12:46:59;;;;;;;3.80;2.00;;;30.60;50.90;;;;;;5007119;28;20022;-66
2022/07/13 12:49:42;;;;;;;4.03;1.98;;;30.60;51.20;;;;;;5013288;28;20125;-66
2022/07/13 12:52:10;;;;;;;2.70;1.87;;;30.70;51.50;;;;;;5009219;28;20113;-66
2022/07/13 12:54:45;;;;;;;3.05;1.73;;;30.60;51.30;;;;;;5014051;28;20064;-66
2022/07/13 12:57:21;;;;;;;4.22;1.92;;;30.60;51.40;;;;;;5002741;28;20109;-67
2022/07/13 13:00:09;;;;;;;3.33;1.52;;;30.60;51.00;;;;;;5010886;28;20042;-66
2022/07/13 13:02:36;;;;;;;3.13;1.65;;;30.60;50.70;;;;;;5008488;28;20021;-66